createdAt,value
2019-02-15T00:00:38.867Z,100894.42
2019-02-15T00:03:09.020Z,100896.70
2019-02-15T00:05:38.651Z,100892.38
2019-02-15T00:08:08.281Z,100886.22
2019-02-15T00:10:37.986Z,100896.77
2019-02-15T00:13:13.302Z,100889.09
2019-02-15T00:15:38.960Z,100899.74
2019-02-15T00:18:39.408Z,100896.79
2019-02-15T00:21:30.321Z,100898.36
2019-02-15T00:23:59.878Z,100893.75
2019-02-15T00:26:29.505Z,100897.72
2019-02-15T00:28:59.195Z,100896.95
2019-02-15T00:31:28.896Z,100893.55
2019-02-15T00:33:58.626Z,100896.20
2019-02-15T00:36:28.179Z,100895.75
2019-02-15T00:38:57.720Z,100890.87
2019-02-15T00:41:27.282Z,100893.33
2019-02-15T00:43:56.931Z,100893.17
2019-02-15T00:47:00.686Z,100897.61
2019-02-15T00:49:55.095Z,100902.92
2019-02-15T00:52:46.312Z,100900.88
2019-02-15T00:55:40.767Z,100897.06
2019-02-15T00:58:15.842Z,100899.07
2019-02-15T01:00:54.724Z,100904.25
2019-02-15T01:04:01.479Z,100905.14
2019-02-15T01:06:40.730Z,100902.20
2019-02-15T01:09:38.015Z,100905.88
2019-02-15T01:12:29.844Z,100909.95
2019-02-15T01:14:59.487Z,100903.30
2019-02-15T01:17:29.113Z,100903.30
2019-02-15T01:19:58.675Z,100895.83
2019-02-15T01:22:28.325Z,100897.23
2019-02-15T01:24:57.954Z,100901.14
2019-02-15T01:27:37.289Z,100898.32
2019-02-15T01:30:24.642Z,100900.47
2019-02-15T01:33:18.910Z,100901.42
2019-02-15T01:36:10.068Z,100897.80
2019-02-15T01:38:47.535Z,100902.77
2019-02-15T01:41:24.554Z,100900.27
2019-02-15T01:43:58.462Z,100901.79
2019-02-15T01:46:46.840Z,100900.64
2019-02-15T01:49:16.385Z,100900.02
2019-02-15T01:51:46.042Z,100895.36
2019-02-15T01:54:15.573Z,100893.66
2019-02-15T01:56:45.247Z,100899.22
2019-02-15T01:59:14.902Z,100896.87
2019-02-15T02:01:44.550Z,100899.52
2019-02-15T02:04:14.127Z,100900.75
2019-02-15T02:06:43.734Z,100894.31
2019-02-15T02:09:13.459Z,100899.12
2019-02-15T02:11:43.133Z,100894.00
2019-02-15T02:14:12.684Z,100891.04
2019-02-15T02:16:42.210Z,100897.48
2019-02-15T02:19:11.763Z,100893.32
2019-02-15T02:21:41.427Z,100890.66
2019-02-15T02:24:10.988Z,100905.72
2019-02-15T02:26:40.651Z,100900.03
2019-02-15T02:29:10.188Z,100895.61
2019-02-15T02:31:39.737Z,100901.09
2019-02-15T02:34:09.270Z,100892.74
2019-02-15T02:36:52.472Z,100898.91
2019-02-15T02:39:22.100Z,100891.48
2019-02-15T02:41:51.650Z,100889.41
2019-02-15T02:44:21.320Z,100887.97
2019-02-15T02:46:50.957Z,100887.11
2019-02-15T02:49:20.495Z,100892.57
2019-02-15T02:51:50.125Z,100896.25
2019-02-15T02:54:19.777Z,100904.28
2019-02-15T02:56:49.527Z,100902.43
2019-02-15T02:59:19.080Z,100901.90
2019-02-15T03:01:48.639Z,100904.95
2019-02-15T03:04:18.338Z,100905.92
2019-02-15T03:06:48.179Z,100908.64
2019-02-15T03:09:17.889Z,100904.22
2019-02-15T03:11:47.514Z,100907.99
2019-02-15T03:14:17.107Z,100904.14
2019-02-15T03:16:46.637Z,100903.70
2019-02-15T03:19:16.261Z,100909.97
2019-02-15T03:21:45.821Z,100912.91
2019-02-15T03:24:15.577Z,100912.37
2019-02-15T03:26:45.150Z,100911.89
2019-02-15T03:29:14.700Z,100917.74
2019-02-15T03:31:44.349Z,100917.69
2019-02-15T03:34:14.012Z,100918.75
2019-02-15T03:36:53.887Z,100917.13
2019-02-15T03:39:31.647Z,100920.92
2019-02-15T03:42:01.165Z,100918.59
2019-02-15T03:44:30.719Z,100920.40
2019-02-15T03:47:00.303Z,100921.20
2019-02-15T03:49:29.943Z,100929.58
2019-02-15T03:51:59.512Z,100928.04
2019-02-15T03:54:29.122Z,100930.50
2019-02-15T03:56:58.767Z,100931.72
2019-02-15T03:59:28.327Z,100933.79
2019-02-15T04:01:57.931Z,100924.64
2019-02-15T04:04:27.481Z,100926.73
2019-02-15T04:06:57.191Z,100919.20
2019-02-15T04:09:26.834Z,100921.75
2019-02-15T04:11:56.418Z,100922.84
2019-02-15T04:14:32.619Z,100921.55
2019-02-15T04:16:57.318Z,100916.44
2019-02-15T04:19:26.854Z,100921.81
2019-02-15T04:21:56.447Z,100926.75
2019-02-15T04:24:26.017Z,100925.80
2019-02-15T04:26:55.588Z,100921.23
2019-02-15T04:29:25.140Z,100928.25
2019-02-15T04:31:54.713Z,100932.77
2019-02-15T04:34:24.278Z,100929.15
2019-02-15T04:36:53.816Z,100939.20
2019-02-15T04:39:23.426Z,100928.37
2019-02-15T04:41:52.975Z,100932.61
2019-02-15T04:44:22.507Z,100933.37
2019-02-15T04:46:52.061Z,100931.43
2019-02-15T04:49:21.614Z,100936.64
2019-02-15T04:51:51.153Z,100936.60
2019-02-15T04:54:20.726Z,100941.81
2019-02-15T04:56:50.417Z,100948.88
2019-02-15T04:59:20.118Z,100946.98
2019-02-15T05:01:49.790Z,100956.00
2019-02-15T05:04:19.432Z,100958.46
2019-02-15T05:06:49.002Z,100953.86
2019-02-15T05:09:18.647Z,100960.09
2019-02-15T05:11:48.232Z,100964.08
2019-02-15T05:14:17.935Z,100968.34
2019-02-15T05:16:47.545Z,100965.58
2019-02-15T05:19:17.101Z,100971.05
2019-02-15T05:21:46.814Z,100966.63
2019-02-15T05:24:16.353Z,100973.75
2019-02-15T05:26:45.975Z,100971.95
2019-02-15T05:29:15.574Z,100984.95
2019-02-15T05:31:45.123Z,100983.11
2019-02-15T05:34:14.689Z,100992.78
2019-02-15T05:36:44.225Z,100991.55
2019-02-15T05:39:13.954Z,100996.39
2019-02-15T05:41:43.678Z,100996.87
2019-02-15T05:44:16.851Z,101005.83
2019-02-15T05:46:46.613Z,101010.66
2019-02-15T05:49:16.130Z,101007.53
2019-02-15T05:51:47.561Z,101013.02
2019-02-15T05:54:17.315Z,101014.13
2019-02-15T05:56:46.874Z,101026.09
2019-02-15T05:59:16.474Z,101028.04
2019-02-15T06:01:46.039Z,101028.75
2019-02-15T06:04:15.643Z,101032.30
2019-02-15T06:06:45.215Z,101032.69
2019-02-15T06:09:14.856Z,101040.98
2019-02-15T06:11:44.453Z,101041.74
2019-02-15T06:14:13.991Z,101042.89
2019-02-15T06:16:43.687Z,101051.25
2019-02-15T06:19:13.237Z,101044.75
2019-02-15T06:21:42.782Z,101049.54
2019-02-15T06:24:12.368Z,101056.56
2019-02-15T06:26:41.989Z,101055.71
2019-02-15T06:29:11.601Z,101053.61
2019-02-15T06:31:41.241Z,101055.03
2019-02-15T06:34:10.806Z,101056.64
2019-02-15T06:36:40.349Z,101052.42
2019-02-15T06:39:09.921Z,101055.16
2019-02-15T06:41:39.532Z,101063.09
2019-02-15T06:44:10.034Z,101066.50
2019-02-15T06:46:39.729Z,101068.84
2019-02-15T06:49:09.301Z,101069.04
2019-02-15T06:51:38.860Z,101073.15
2019-02-15T06:54:08.485Z,101076.28
2019-02-15T06:56:38.062Z,101072.92
2019-02-15T06:59:25.259Z,101077.47
2019-02-15T07:01:59.847Z,101080.38
2019-02-15T07:04:34.239Z,101078.39
2019-02-15T07:07:03.807Z,101080.58
2019-02-15T07:09:33.348Z,101088.50
2019-02-15T07:12:02.945Z,101093.88
2019-02-15T07:14:32.798Z,101093.17
2019-02-15T07:17:02.428Z,101096.38
2019-02-15T07:19:31.991Z,101100.00
2019-02-15T07:22:01.606Z,101107.41
2019-02-15T07:24:31.206Z,101102.86
2019-02-15T07:27:00.821Z,101096.92
2019-02-15T07:29:30.551Z,101108.74
2019-02-15T07:32:00.098Z,101108.73
2019-02-15T07:34:29.644Z,101111.59
2019-02-15T07:36:59.201Z,101111.02
2019-02-15T07:39:28.747Z,101115.58
2019-02-15T07:41:58.303Z,101107.35
2019-02-15T07:44:27.830Z,101108.25
2019-02-15T07:46:57.507Z,101114.33
2019-02-15T07:49:27.276Z,101121.35
2019-02-15T07:51:56.799Z,101120.85
2019-02-15T07:54:26.408Z,101128.14
2019-02-15T07:56:56.022Z,101132.34
2019-02-15T07:59:25.608Z,101130.19
2019-02-15T08:02:01.627Z,101142.14
2019-02-15T08:04:26.546Z,101136.49
2019-02-15T08:06:56.088Z,101140.50
2019-02-15T08:09:25.660Z,101136.19
2019-02-15T08:11:55.216Z,101138.40
2019-02-15T08:14:24.836Z,101137.55
2019-02-15T08:16:54.376Z,101137.83
2019-02-15T08:19:24.036Z,101141.27
2019-02-15T08:21:53.605Z,101137.89
2019-02-15T08:24:23.270Z,101140.12
2019-02-15T08:26:52.825Z,101141.94
2019-02-15T08:29:22.394Z,101142.14
2019-02-15T08:31:51.993Z,101142.58
2019-02-15T08:34:21.528Z,101143.75
2019-02-15T08:36:51.077Z,101147.20
2019-02-15T08:39:20.639Z,101156.31
2019-02-15T08:42:01.213Z,101156.73
2019-02-15T08:44:21.492Z,101158.98
2019-02-15T08:46:51.046Z,101159.39
2019-02-15T08:49:20.602Z,101168.23
2019-02-15T08:51:50.259Z,101166.80
2019-02-15T08:54:19.852Z,101162.73
2019-02-15T08:56:49.413Z,101165.95
2019-02-15T08:59:18.967Z,101164.92
2019-02-15T09:02:03.469Z,101172.27
2019-02-15T09:04:33.041Z,101170.77
2019-02-15T09:07:02.633Z,101167.59
2019-02-15T09:09:32.217Z,101175.03
2019-02-15T09:12:01.865Z,101177.34
2019-02-15T09:14:31.465Z,101171.61
2019-02-15T09:17:01.035Z,101173.36
2019-02-15T09:19:30.580Z,101182.37
2019-02-15T09:22:00.126Z,101186.47
2019-02-15T09:24:29.687Z,101184.79
2019-02-15T09:27:04.740Z,101190.19
2019-02-15T09:29:34.378Z,101190.27
2019-02-15T09:32:04.009Z,101195.15
2019-02-15T09:34:33.655Z,101203.41
2019-02-15T09:37:03.265Z,101198.73
2019-02-15T09:39:32.795Z,101201.16
2019-02-15T09:42:02.416Z,101209.25
2019-02-15T09:44:31.983Z,101204.77
2019-02-15T09:47:01.529Z,101210.03
2019-02-15T09:49:31.150Z,101205.52
2019-02-15T09:52:00.705Z,101209.45
2019-02-15T09:54:30.281Z,101205.31
2019-02-15T09:56:59.840Z,101205.08
2019-02-15T09:59:29.452Z,101203.82
2019-02-15T10:01:59.088Z,101208.50
2019-02-15T10:04:28.665Z,101212.23
2019-02-15T10:06:58.361Z,101214.62
2019-02-15T10:09:27.901Z,101217.28
2019-02-15T10:11:57.456Z,101216.16
2019-02-15T10:14:27.066Z,101220.25
2019-02-15T10:16:56.690Z,101224.70
2019-02-15T10:19:26.279Z,101219.81
2019-02-15T10:21:55.899Z,101226.91
2019-02-15T10:24:25.635Z,101222.73
2019-02-15T10:26:55.277Z,101224.11
2019-02-15T10:29:24.863Z,101223.60
2019-02-15T10:31:54.505Z,101226.44
2019-02-15T10:34:24.073Z,101227.22
2019-02-15T10:36:53.662Z,101226.84
2019-02-15T10:39:23.256Z,101224.56
2019-02-15T10:41:53.251Z,101228.93
2019-02-15T10:44:22.871Z,101224.56
2019-02-15T10:46:52.435Z,101231.94
2019-02-15T10:49:22.079Z,101230.16
2019-02-15T10:51:51.652Z,101231.94
2019-02-15T10:54:21.295Z,101224.86
2019-02-15T10:56:50.842Z,101220.58
2019-02-15T10:59:20.415Z,101222.83
2019-02-15T11:01:49.971Z,101224.95
2019-02-15T11:04:20.135Z,101229.33
2019-02-15T11:06:49.737Z,101228.27
2019-02-15T11:09:19.298Z,101230.34
2019-02-15T11:11:48.966Z,101233.04
2019-02-15T11:14:18.514Z,101232.19
2019-02-15T11:16:48.171Z,101233.81
2019-02-15T11:19:17.826Z,101231.41
2019-02-15T11:21:47.496Z,101227.12
2019-02-15T11:24:17.131Z,101229.20
2019-02-15T11:26:46.683Z,101234.08
2019-02-15T11:31:42.823Z,101227.86
2019-02-15T11:34:12.363Z,101236.02
2019-02-15T11:36:42.039Z,101229.11
2019-02-15T11:39:11.672Z,101229.89
2019-02-15T11:41:41.237Z,101235.02
2019-02-15T11:44:10.849Z,101231.49
2019-02-15T11:46:40.522Z,101225.08
2019-02-15T11:49:10.050Z,101228.23
2019-02-15T11:51:39.606Z,101227.11
2019-02-15T11:54:09.222Z,101219.36
2019-02-15T11:56:38.839Z,101225.23
2019-02-15T11:59:08.461Z,101225.88
2019-02-15T12:01:38.025Z,101227.22
2019-02-15T12:04:07.643Z,101215.05
2019-02-15T12:06:37.271Z,101217.39
2019-02-15T12:09:07.004Z,101214.50
2019-02-15T12:11:36.607Z,101213.16
2019-02-15T12:14:06.137Z,101221.33
2019-02-15T12:16:35.700Z,101213.06
2019-02-15T12:19:05.428Z,101216.55
2019-02-15T12:21:35.106Z,101215.75
2019-02-15T12:24:04.845Z,101212.85
2019-02-15T12:26:34.464Z,101214.83
2019-02-15T12:29:04.061Z,101212.38
2019-02-15T12:31:33.618Z,101201.32
2019-02-15T12:34:03.184Z,101204.00
2019-02-15T12:36:32.757Z,101197.80
2019-02-15T12:39:03.954Z,101197.80
2019-02-15T12:41:33.485Z,101196.83
2019-02-15T12:44:03.140Z,101191.80
2019-02-15T12:46:32.729Z,101196.18
2019-02-15T12:49:02.342Z,101192.69
2019-02-15T12:51:31.894Z,101199.28
2019-02-15T12:54:01.542Z,101194.92
2019-02-15T12:56:31.091Z,101196.98
2019-02-15T12:59:00.795Z,101196.75
2019-02-15T13:01:30.464Z,101197.36
2019-02-15T13:04:00.072Z,101200.28
2019-02-15T13:06:29.708Z,101197.84
2019-02-15T13:08:59.339Z,101194.43
2019-02-15T13:11:28.939Z,101195.40
2019-02-15T13:13:58.675Z,101200.98
2019-02-15T13:16:28.436Z,101192.80
2019-02-15T13:18:58.143Z,101192.83
2019-02-15T13:21:27.770Z,101196.98
2019-02-15T13:23:57.402Z,101190.91
2019-02-15T13:26:27.118Z,101188.59
2019-02-15T13:28:56.706Z,101192.47
2019-02-15T13:31:26.267Z,101184.12
2019-02-15T13:33:57.164Z,101188.00
2019-02-15T13:36:26.844Z,101181.45
2019-02-15T13:38:56.399Z,101185.45
2019-02-15T13:41:26.040Z,101180.36
2019-02-15T13:43:55.783Z,101187.77
2019-02-15T13:46:25.328Z,101192.87
2019-02-15T13:48:55.001Z,101188.96
2019-02-15T13:51:24.665Z,101188.38
2019-02-15T13:53:54.237Z,101191.78
2019-02-15T13:56:23.832Z,101191.77
2019-02-15T13:58:53.430Z,101188.84
2019-02-15T14:01:23.108Z,101193.70
2019-02-15T14:03:52.908Z,101197.58
2019-02-15T14:06:22.531Z,101199.90
2019-02-15T14:08:52.098Z,101197.80
2019-02-15T14:11:21.622Z,101201.67
2019-02-15T14:13:51.246Z,101203.48
2019-02-15T14:16:20.809Z,101198.66
2019-02-15T14:18:50.450Z,101195.73
2019-02-15T14:21:19.992Z,101201.05
2019-02-15T14:23:49.634Z,101197.10
2019-02-15T14:26:19.204Z,101203.51
2019-02-15T14:28:48.732Z,101197.80
2019-02-15T14:31:18.273Z,101200.50
2019-02-15T14:33:48.236Z,101208.69
2019-02-15T14:36:17.966Z,101218.84
2019-02-15T14:38:47.504Z,101216.50
2019-02-15T14:41:17.052Z,101212.87
2019-02-15T14:43:46.584Z,101212.02
2019-02-15T14:46:16.154Z,101215.66
2019-02-15T14:48:45.754Z,101217.08
2019-02-15T14:51:15.303Z,101207.85
2019-02-15T14:53:44.863Z,101218.27
2019-02-15T14:56:14.420Z,101218.37
2019-02-15T14:58:44.069Z,101219.20
2019-02-15T15:01:13.711Z,101220.65
2019-02-15T15:03:43.286Z,101227.05
2019-02-15T15:06:13.019Z,101226.77
2019-02-15T15:08:42.506Z,101227.70
2019-02-15T15:11:12.452Z,101226.74
2019-02-15T15:13:42.002Z,101234.16
2019-02-15T15:16:11.609Z,101237.79
2019-02-15T15:18:41.355Z,101240.56
2019-02-15T15:21:11.128Z,101242.83
2019-02-15T15:23:40.765Z,101244.94
2019-02-15T15:26:12.077Z,101254.22
2019-02-15T15:28:42.032Z,101261.78
2019-02-15T15:31:11.786Z,101257.80
2019-02-15T15:33:41.533Z,101258.93
2019-02-15T15:36:11.165Z,101262.77
2019-02-15T15:38:40.813Z,101264.09
2019-02-15T15:41:10.505Z,101260.50
2019-02-15T15:43:40.240Z,101269.73
2019-02-15T15:46:09.893Z,101277.82
2019-02-15T15:48:39.633Z,101285.34
2019-02-15T15:51:09.347Z,101294.11
2019-02-15T15:53:39.037Z,101295.30
2019-02-15T15:56:08.772Z,101296.46
2019-02-15T15:58:38.546Z,101293.27
2019-02-15T16:01:08.199Z,101301.27
2019-02-15T16:03:37.768Z,101310.34
2019-02-15T16:06:07.412Z,101305.79
2019-02-15T16:08:37.009Z,101313.78
2019-02-15T16:11:06.700Z,101314.16
2019-02-15T16:13:36.311Z,101313.88
2019-02-15T16:16:05.997Z,101325.39
2019-02-15T16:18:35.641Z,101322.58
2019-02-15T16:21:05.330Z,101325.97
2019-02-15T16:23:35.169Z,101330.22
2019-02-15T16:26:04.861Z,101328.69
2019-02-15T16:28:34.544Z,101333.59
2019-02-15T16:31:04.186Z,101339.59
2019-02-15T16:33:33.796Z,101337.73
2019-02-15T16:36:03.346Z,101341.77
2019-02-15T16:38:32.908Z,101347.20
2019-02-15T16:41:02.480Z,101350.09
2019-02-15T16:43:32.034Z,101355.03
2019-02-15T16:46:01.569Z,101359.80
2019-02-15T16:48:31.136Z,101350.38
2019-02-15T16:51:00.736Z,101350.85
2019-02-15T16:53:30.319Z,101351.67
2019-02-15T16:55:59.935Z,101355.28
2019-02-15T16:58:29.671Z,101359.41
2019-02-15T17:00:59.378Z,101357.00
2019-02-15T17:03:29.076Z,101358.61
2019-02-15T17:05:58.628Z,101361.38
2019-02-15T17:08:28.274Z,101358.47
2019-02-15T17:10:58.123Z,101366.78
2019-02-15T17:13:27.799Z,101368.55
2019-02-15T17:15:57.541Z,101372.39
2019-02-15T17:18:27.223Z,101372.55
2019-02-15T17:20:56.863Z,101371.53
2019-02-15T17:23:26.414Z,101370.53
2019-02-15T17:25:56.048Z,101374.17
2019-02-15T17:28:25.887Z,101376.52
2019-02-15T17:30:55.675Z,101372.18
2019-02-15T17:33:25.392Z,101366.56
2019-02-15T17:35:55.152Z,101367.52
2019-02-15T17:38:24.835Z,101373.66
2019-02-15T17:40:54.444Z,101372.49
2019-02-15T17:43:24.109Z,101379.17
2019-02-15T17:45:53.759Z,101380.29
2019-02-15T17:48:23.316Z,101378.77
2019-02-15T17:50:53.082Z,101373.06
2019-02-15T17:53:22.850Z,101381.02
2019-02-15T17:55:52.646Z,101372.11
2019-02-15T17:58:22.282Z,101371.89
2019-02-15T18:00:51.989Z,101374.94
2019-02-15T18:03:21.553Z,101374.02
2019-02-15T18:05:51.202Z,101375.34
2019-02-15T18:08:20.933Z,101372.72
2019-02-15T18:10:50.719Z,101372.99
2019-02-15T18:13:20.299Z,101376.80
2019-02-15T18:15:49.858Z,101373.91
2019-02-15T18:18:19.441Z,101374.09
2019-02-15T18:20:49.007Z,101381.51
2019-02-15T18:23:18.623Z,101378.08
2019-02-15T18:25:48.272Z,101378.28
2019-02-15T18:28:17.822Z,101374.48
2019-02-15T18:30:47.369Z,101372.42
2019-02-15T18:33:16.927Z,101367.49
2019-02-15T18:35:46.574Z,101374.88
2019-02-15T18:38:16.172Z,101377.64
2019-02-15T18:40:45.805Z,101378.12
2019-02-15T18:43:15.362Z,101380.36
2019-02-15T18:45:44.977Z,101379.80
2019-02-15T18:48:14.536Z,101390.98
2019-02-15T18:50:44.078Z,101389.66
2019-02-15T18:53:13.635Z,101389.10
2019-02-15T18:55:43.260Z,101393.13
2019-02-15T18:58:12.826Z,101390.72
2019-02-15T19:00:42.379Z,101396.16
2019-02-15T19:03:11.930Z,101395.59
2019-02-15T19:05:41.486Z,101395.02
2019-02-15T19:08:11.021Z,101401.08
2019-02-15T19:10:40.693Z,101406.20
2019-02-15T19:13:10.410Z,101408.40
2019-02-15T19:15:39.973Z,101415.99
2019-02-15T19:18:09.619Z,101416.67
2019-02-15T19:20:39.229Z,101417.80
2019-02-15T19:23:08.815Z,101417.03
2019-02-15T19:25:38.446Z,101420.45
2019-02-15T19:28:08.163Z,101423.87
2019-02-15T19:30:37.869Z,101422.55
2019-02-15T19:33:07.454Z,101422.19
2019-02-15T19:35:37.567Z,101425.69
2019-02-15T19:38:07.296Z,101428.27
2019-02-15T19:40:36.999Z,101429.97
2019-02-15T19:43:06.689Z,101433.00
2019-02-15T19:45:36.328Z,101423.40
2019-02-15T19:48:05.873Z,101435.66
2019-02-15T19:50:35.448Z,101436.22
2019-02-15T19:53:05.172Z,101432.61
2019-02-15T19:55:34.996Z,101431.41
2019-02-15T19:58:04.549Z,101432.82
2019-02-15T20:00:35.659Z,101439.45
2019-02-15T20:03:05.566Z,101434.14
2019-02-15T20:05:35.357Z,101433.57
2019-02-15T20:08:05.080Z,101431.68
2019-02-15T20:10:34.786Z,101435.66
2019-02-15T20:13:04.370Z,101425.97
2019-02-15T20:15:33.905Z,101426.36
2019-02-15T20:18:03.463Z,101429.19
2019-02-15T20:20:33.044Z,101431.49
2019-02-15T20:23:02.701Z,101425.58
2019-02-15T20:25:32.266Z,101426.55
2019-02-15T20:28:01.859Z,101429.56
2019-02-15T20:30:31.424Z,101424.25
2019-02-15T20:33:01.115Z,101427.41
2019-02-15T20:35:30.979Z,101436.98
2019-02-15T20:38:00.662Z,101439.46
2019-02-15T20:40:30.480Z,101439.46
2019-02-15T20:43:00.206Z,101437.55
2019-02-15T20:45:29.974Z,101443.25
2019-02-15T20:47:59.673Z,101437.77
2019-02-15T20:50:29.295Z,101424.65
2019-02-15T20:52:59.007Z,101431.29
2019-02-15T20:55:28.682Z,101429.19
2019-02-15T20:57:58.355Z,101419.72
2019-02-15T21:00:28.026Z,101411.52
2019-02-15T21:02:57.780Z,101416.11
2019-02-15T21:05:29.595Z,101419.14
2019-02-15T21:07:59.246Z,101413.05
2019-02-15T21:10:28.844Z,101410.21
2019-02-15T21:12:58.438Z,101413.44
2019-02-15T21:15:28.018Z,101412.67
2019-02-15T21:17:57.621Z,101410.50
2019-02-15T21:20:27.259Z,101401.84
2019-02-15T21:22:56.860Z,101404.88
2019-02-15T21:25:27.761Z,101402.98
2019-02-15T21:27:57.513Z,101401.27
2019-02-15T21:30:30.516Z,101400.03
2019-02-15T21:33:00.088Z,101401.09
2019-02-15T21:35:30.275Z,101398.23
2019-02-15T21:38:01.246Z,101406.51
2019-02-15T21:40:30.878Z,101401.28
2019-02-15T21:43:00.436Z,101399.56
2019-02-15T21:45:30.012Z,101401.58
2019-02-15T21:47:59.610Z,101401.74
2019-02-15T21:50:29.143Z,101403.36
2019-02-15T21:52:58.693Z,101400.60
2019-02-15T21:55:28.340Z,101398.44
2019-02-15T22:05:02.247Z,101397.95
2019-02-15T22:07:31.882Z,101396.16
2019-02-15T22:10:01.423Z,101391.98
2019-02-15T22:12:31.004Z,101397.66
2019-02-15T22:15:00.784Z,101399.55
2019-02-15T22:17:30.504Z,101396.04
2019-02-15T22:20:00.250Z,101398.99
2019-02-15T22:22:29.959Z,101397.39
2019-02-15T22:24:59.509Z,101396.25
2019-02-15T22:27:29.150Z,101393.30
2019-02-15T22:29:58.687Z,101404.70
2019-02-15T22:32:28.250Z,101398.91
2019-02-15T22:34:57.805Z,101402.13
2019-02-15T22:37:27.354Z,101401.77
2019-02-15T22:39:56.904Z,101395.20
2019-02-15T22:42:26.464Z,101400.91
2019-02-15T22:44:56.003Z,101395.59
2019-02-15T22:47:25.534Z,101394.35
2019-02-15T22:49:55.131Z,101396.72
2019-02-15T22:52:24.705Z,101399.66
2019-02-15T22:54:54.347Z,101392.64
2019-02-15T22:57:23.961Z,101388.36
2019-02-15T22:59:54.667Z,101395.56
2019-02-15T23:02:24.515Z,101396.33
2019-02-15T23:04:54.068Z,101395.39
2019-02-15T23:07:23.609Z,101385.52
2019-02-15T23:09:53.230Z,101385.69
2019-02-15T23:12:22.897Z,101390.19
2019-02-15T23:14:52.525Z,101389.50
2019-02-15T23:17:22.318Z,101387.61
2019-02-15T23:19:51.994Z,101393.31
2019-02-15T23:22:21.638Z,101386.10
2019-02-15T23:24:51.346Z,101381.05
2019-02-15T23:27:21.061Z,101380.78
2019-02-15T23:29:50.772Z,101380.95
2019-02-15T23:32:20.408Z,101377.91
2019-02-15T23:34:50.088Z,101377.14
2019-02-15T23:37:19.821Z,101380.19
2019-02-15T23:39:49.508Z,101377.36
2019-02-15T23:42:19.111Z,101374.31
2019-02-15T23:44:48.726Z,101369.55
2019-02-15T23:47:18.445Z,101375.81
2019-02-15T23:49:48.028Z,101375.47
2019-02-15T23:52:17.659Z,101376.97
2019-02-15T23:54:47.350Z,101378.50
2019-02-15T23:57:16.990Z,101371.65
2019-02-15T23:59:46.598Z,101366.91
